UDPAV weather

Public forecast

Using degrees Celsius for public forecast. Weather courtesy of forecast.io.

Closest aviation weather report (METAR) to Campo di Volo "Fly Evolution"

Report is more than 6 hours old.

Closest report is Rivolto Air Base, 10.8 nm (19.9 km) W. Retrieved 2020/08/11 13:55 UTC (11 hours ago):

LIPI 111355Z 19002KT 9999 FEW025TCU 32/19 Q1015 RMK FEW VIS MIN 9999 WIND THR06 32002KT WIND THR24 20005KT BLU

Closest aviation forecast (TAF) to Campo di Volo "Fly Evolution"

Forecast is more than 12 hours old.

Closest forecast is Rivolto Air Base, 10.8 nm (19.9 km) W. Retrieved 2020/01/23 12:24 UTC (7 months ago):

TAF TAF LIPI 231100Z 2312/2324 06010KT CAVOK